createdAt,value
2018-03-25T00:02:40.966Z,26.87
2018-03-25T00:17:40.375Z,28.30
2018-03-25T00:32:38.828Z,28.83
2018-03-25T00:47:42.748Z,25.53
2018-03-25T01:02:37.229Z,16.20
2018-03-25T01:17:40.112Z,9.23
2018-03-25T01:32:41.126Z,11.00
2018-03-25T01:47:49.224Z,10.70
2018-03-25T02:02:39.073Z,9.57
2018-03-25T02:17:34.394Z,9.87
2018-03-25T02:32:41.891Z,8.90
2018-03-25T02:47:40.794Z,8.33
2018-03-25T03:32:48.645Z,10.03
2018-03-25T04:47:40.070Z,9.17
2018-03-25T05:02:39.131Z,10.03
2018-03-25T05:32:38.809Z,9.00
2018-03-25T05:47:37.223Z,9.70
2018-03-25T06:02:33.988Z,10.80
2018-03-25T06:47:35.152Z,10.30
2018-03-25T07:02:35.601Z,11.80
2018-03-25T07:17:34.939Z,10.40
2018-03-25T07:47:34.910Z,10.03
2018-03-25T08:02:37.131Z,9.20
2018-03-25T08:17:34.509Z,9.37
2018-03-25T08:32:37.718Z,8.43
2018-03-25T08:47:37.527Z,8.87
2018-03-25T09:02:36.514Z,10.57
2018-03-25T09:17:33.854Z,10.33
2018-03-25T09:32:36.820Z,10.70
2018-03-25T09:47:36.826Z,10.70
2018-03-25T10:02:42.724Z,10.00
2018-03-25T10:17:35.075Z,10.53
2018-03-25T10:47:35.468Z,12.17
2018-03-25T11:02:35.056Z,10.83
2018-03-25T11:17:34.312Z,10.97
2018-03-25T11:32:35.936Z,11.60
2018-03-25T11:47:37.055Z,12.70
2018-03-25T12:02:43.778Z,13.23
2018-03-25T12:17:37.417Z,12.03
2018-03-25T12:32:38.247Z,14.90
2018-03-25T13:02:35.068Z,13.57
2018-03-25T13:17:39.798Z,14.63
2018-03-25T13:32:41.074Z,15.17
2018-03-25T14:17:38.252Z,14.63
2018-03-25T14:32:34.815Z,15.03
2018-03-25T14:47:36.531Z,16.27
2018-03-25T15:02:37.404Z,15.80
2018-03-25T15:17:38.183Z,16.30
2018-03-25T15:32:36.795Z,16.90
2018-03-25T15:47:35.559Z,14.63
2018-03-25T16:02:37.254Z,16.50
2018-03-25T16:17:42.072Z,16.73
2018-03-25T16:32:39.841Z,17.23
2018-03-25T16:47:35.542Z,17.83
2018-03-25T17:02:39.113Z,16.90
2018-03-25T17:17:36.916Z,15.47
2018-03-25T17:47:38.497Z,17.43
2018-03-25T18:02:37.648Z,17.37
2018-03-25T18:17:40.511Z,16.90
2018-03-25T18:32:49.232Z,18.50
2018-03-25T19:02:36.893Z,17.17
2018-03-25T19:17:37.180Z,20.17
2018-03-25T19:32:38.988Z,18.27
2018-03-25T19:47:35.223Z,16.97
2018-03-25T20:02:37.059Z,16.27
2018-03-25T20:32:38.421Z,15.47
2018-03-25T20:47:38.275Z,15.93
2018-03-25T21:02:42.266Z,15.00
2018-03-25T21:17:36.685Z,12.43
2018-03-25T21:32:36.538Z,11.80
2018-03-25T22:02:34.508Z,11.90
2018-03-25T22:17:36.841Z,10.03
2018-03-25T22:32:34.244Z,10.20
2018-03-25T22:47:33.441Z,9.30
2018-03-25T23:02:34.704Z,8.70
2018-03-25T23:17:35.045Z,8.37
2018-03-25T23:32:39.916Z,7.27
2018-03-25T23:47:37.920Z,5.63
